createdAt,value
2017-10-29T00:00:52.870Z,93.85
2017-10-29T00:03:20.488Z,93.97
2017-10-29T00:05:48.309Z,94.03
2017-10-29T00:08:15.911Z,94.01
2017-10-29T00:10:43.582Z,93.90
2017-10-29T00:13:11.158Z,94.01
2017-10-29T00:15:38.773Z,93.98
2017-10-29T00:18:06.410Z,93.90
2017-10-29T00:20:33.999Z,93.71
2017-10-29T00:23:01.616Z,93.23
2017-10-29T00:25:29.205Z,92.96
2017-10-29T00:27:56.806Z,92.95
2017-10-29T00:30:24.433Z,92.94
2017-10-29T00:32:52.028Z,92.99
2017-10-29T00:35:19.626Z,92.88
2017-10-29T00:37:47.234Z,92.57
2017-10-29T00:40:15.107Z,92.43
2017-10-29T00:42:42.725Z,92.38
2017-10-29T00:45:10.640Z,92.44
2017-10-29T00:47:38.227Z,92.07
2017-10-29T00:50:06.173Z,92.07
2017-10-29T00:52:33.761Z,92.03
2017-10-29T00:55:01.379Z,91.85
2017-10-29T00:57:28.950Z,92.15
2017-10-29T00:59:56.579Z,92.20
2017-10-29T01:02:24.186Z,91.10
2017-10-29T01:04:51.765Z,91.60
2017-10-29T01:07:19.381Z,91.44
2017-10-29T01:09:46.950Z,90.85
2017-10-29T01:12:14.542Z,90.71
2017-10-29T01:14:42.153Z,91.12
2017-10-29T01:17:10.061Z,91.24
2017-10-29T01:19:37.685Z,91.06
2017-10-29T01:22:05.263Z,91.09
2017-10-29T01:24:32.845Z,90.78
2017-10-29T01:27:00.453Z,90.22
2017-10-29T01:29:28.049Z,90.37
2017-10-29T01:31:55.677Z,90.40
2017-10-29T01:34:23.266Z,91.29
2017-10-29T01:36:50.855Z,91.93
2017-10-29T01:39:18.476Z,91.96
2017-10-29T01:41:46.056Z,92.16
2017-10-29T01:44:13.672Z,92.28
2017-10-29T01:46:41.302Z,91.66
2017-10-29T01:49:08.885Z,91.98
2017-10-29T01:51:36.532Z,92.69
2017-10-29T01:54:04.389Z,93.52
2017-10-29T01:56:32.360Z,94.12
2017-10-29T01:58:59.951Z,94.58
2017-10-29T02:01:27.760Z,94.60
2017-10-29T02:03:55.380Z,94.84
2017-10-29T02:06:23.001Z,94.49
2017-10-29T02:08:50.626Z,93.91
2017-10-29T02:11:18.221Z,93.71
2017-10-29T02:13:46.108Z,92.79
2017-10-29T02:16:13.975Z,92.67
2017-10-29T02:18:41.540Z,92.19
2017-10-29T02:21:09.165Z,91.34
2017-10-29T02:23:36.758Z,90.88
2017-10-29T02:26:04.349Z,90.93
2017-10-29T02:28:31.983Z,91.41
2017-10-29T02:30:59.559Z,91.43
2017-10-29T02:33:27.190Z,91.13
2017-10-29T02:35:54.774Z,91.32
2017-10-29T02:38:22.351Z,91.38
2017-10-29T02:40:50.001Z,90.46
2017-10-29T02:43:17.582Z,89.82
2017-10-29T02:45:45.209Z,89.96
2017-10-29T02:48:12.796Z,90.01
2017-10-29T02:50:40.386Z,90.18
2017-10-29T02:53:07.997Z,90.47
2017-10-29T02:55:35.607Z,90.26
2017-10-29T02:58:03.231Z,89.19
2017-10-29T03:00:30.833Z,88.79
2017-10-29T03:02:58.412Z,88.02
2017-10-29T03:05:26.019Z,87.59
2017-10-29T03:07:53.640Z,86.19
2017-10-29T03:10:21.257Z,86.17
2017-10-29T03:12:48.832Z,85.46
2017-10-29T03:15:16.763Z,85.53
2017-10-29T03:17:44.736Z,85.39
2017-10-29T03:20:12.603Z,85.83
2017-10-29T03:22:40.580Z,85.49
2017-10-29T03:25:08.170Z,85.60
2017-10-29T03:27:35.816Z,86.56
2017-10-29T03:30:03.464Z,85.54
2017-10-29T03:32:31.057Z,84.85
2017-10-29T03:34:58.669Z,84.80
2017-10-29T03:37:26.259Z,83.73
2017-10-29T03:39:53.884Z,84.26
2017-10-29T03:42:21.528Z,84.17
2017-10-29T03:44:49.117Z,82.68
2017-10-29T03:47:16.748Z,83.35
2017-10-29T03:49:44.322Z,83.11
2017-10-29T03:52:12.217Z,84.28
2017-10-29T03:54:40.084Z,83.14
2017-10-29T03:57:07.659Z,81.44
2017-10-29T03:59:35.378Z,81.56
2017-10-29T04:02:02.963Z,80.33
2017-10-29T04:04:30.577Z,80.34
2017-10-29T04:06:58.194Z,80.70
2017-10-29T04:09:25.870Z,80.64
2017-10-29T04:11:53.503Z,80.86
2017-10-29T04:14:21.090Z,81.00
2017-10-29T04:16:48.684Z,81.06
2017-10-29T04:19:16.280Z,80.63
2017-10-29T04:21:43.858Z,80.45
2017-10-29T04:24:11.478Z,79.38
2017-10-29T04:26:39.060Z,80.38
2017-10-29T04:29:06.660Z,77.67
2017-10-29T04:31:34.274Z,75.56
2017-10-29T04:34:02.190Z,74.47
2017-10-29T04:36:29.799Z,74.19
2017-10-29T04:38:57.417Z,73.26
2017-10-29T04:41:25.034Z,73.60
2017-10-29T04:43:52.649Z,71.19
2017-10-29T04:46:20.232Z,73.29
2017-10-29T04:48:47.897Z,71.48
2017-10-29T04:51:15.495Z,69.56
2017-10-29T04:53:43.386Z,67.66
2017-10-29T04:56:11.083Z,67.46
2017-10-29T04:58:38.675Z,66.11
2017-10-29T05:01:06.319Z,64.79
2017-10-29T05:03:33.928Z,62.92
2017-10-29T05:06:01.505Z,63.69
2017-10-29T05:08:29.369Z,62.73
2017-10-29T05:10:56.976Z,64.37
2017-10-29T05:13:24.609Z,63.24
2017-10-29T05:15:52.192Z,64.30
2017-10-29T05:18:19.770Z,65.64
2017-10-29T05:20:47.387Z,65.56
2017-10-29T05:23:15.270Z,66.35
2017-10-29T05:25:42.895Z,68.13
2017-10-29T05:28:10.538Z,68.46
2017-10-29T05:30:38.144Z,69.37
2017-10-29T05:33:06.109Z,70.60
2017-10-29T05:35:33.706Z,70.66
2017-10-29T05:38:01.318Z,71.43
2017-10-29T05:40:28.917Z,70.69
2017-10-29T05:42:56.617Z,70.55
2017-10-29T05:45:24.242Z,69.78
2017-10-29T05:47:52.079Z,68.94
2017-10-29T05:50:19.710Z,68.77
2017-10-29T05:52:47.308Z,68.57
2017-10-29T05:55:14.884Z,67.67
2017-10-29T05:57:42.495Z,67.96
2017-10-29T06:00:10.129Z,68.28
2017-10-29T06:02:37.791Z,68.11
2017-10-29T06:05:05.609Z,68.80
2017-10-29T06:07:33.202Z,69.07
2017-10-29T06:10:00.825Z,71.17
2017-10-29T06:12:28.421Z,73.36
2017-10-29T06:14:56.045Z,73.91
2017-10-29T06:17:23.641Z,73.74
2017-10-29T06:19:51.344Z,72.59
2017-10-29T06:22:18.956Z,73.54
2017-10-29T06:24:46.555Z,73.67
2017-10-29T06:27:14.488Z,72.95
2017-10-29T06:29:42.072Z,74.02
2017-10-29T06:32:09.798Z,73.39
2017-10-29T06:34:37.429Z,72.43
2017-10-29T06:37:05.187Z,73.20
2017-10-29T06:39:32.789Z,73.30
2017-10-29T06:42:00.418Z,73.96
2017-10-29T06:44:28.075Z,74.53
2017-10-29T06:46:55.740Z,76.84
2017-10-29T06:49:23.391Z,77.21
2017-10-29T06:51:50.996Z,78.10
2017-10-29T06:54:18.599Z,78.71
2017-10-29T06:56:46.218Z,78.88
2017-10-29T06:59:13.874Z,78.64
2017-10-29T07:01:41.516Z,78.90
2017-10-29T07:04:09.438Z,78.79
2017-10-29T07:06:37.036Z,78.96
2017-10-29T07:09:04.648Z,78.34
2017-10-29T07:11:32.260Z,78.28
2017-10-29T07:13:59.925Z,77.61
2017-10-29T07:16:27.528Z,77.04
2017-10-29T07:18:55.146Z,77.16
2017-10-29T07:21:22.791Z,77.37
2017-10-29T07:23:50.402Z,77.25
2017-10-29T07:26:18.043Z,77.04
2017-10-29T07:28:45.704Z,76.32
2017-10-29T07:31:13.570Z,76.41
2017-10-29T07:33:41.209Z,76.38
2017-10-29T07:36:08.811Z,75.77
2017-10-29T07:38:36.713Z,75.92
2017-10-29T07:41:04.584Z,74.83
2017-10-29T07:43:32.600Z,74.96
2017-10-29T07:46:00.213Z,74.71
2017-10-29T07:48:28.171Z,75.33
2017-10-29T07:50:56.056Z,76.26
2017-10-29T07:53:23.940Z,77.60
2017-10-29T07:55:51.891Z,79.28
2017-10-29T07:58:19.774Z,79.28
2017-10-29T08:00:47.766Z,79.13
2017-10-29T08:03:15.378Z,79.71
2017-10-29T08:05:42.982Z,79.96
2017-10-29T08:08:10.571Z,80.29
2017-10-29T08:10:38.185Z,80.69
2017-10-29T08:13:05.782Z,80.05
2017-10-29T08:15:33.412Z,80.80
2017-10-29T08:18:01.007Z,80.59
2017-10-29T08:20:28.633Z,80.11
2017-10-29T08:22:56.254Z,79.36
2017-10-29T08:25:23.846Z,79.79
2017-10-29T08:27:51.487Z,79.93
2017-10-29T08:30:19.117Z,80.18
2017-10-29T08:32:47.101Z,80.64
2017-10-29T08:35:14.860Z,80.94
2017-10-29T08:37:42.441Z,82.36
2017-10-29T08:40:10.081Z,82.67
2017-10-29T08:42:37.671Z,82.73
2017-10-29T08:45:05.268Z,83.20
2017-10-29T08:47:32.946Z,83.25
2017-10-29T08:50:00.584Z,82.95
2017-10-29T08:52:28.204Z,83.05
2017-10-29T08:54:55.797Z,80.64
2017-10-29T08:57:23.387Z,80.34
2017-10-29T08:59:51.006Z,79.91
2017-10-29T09:02:18.604Z,80.13
2017-10-29T09:04:46.245Z,81.16
2017-10-29T09:07:13.832Z,80.05
2017-10-29T09:09:41.432Z,80.64
2017-10-29T09:12:09.347Z,79.31
2017-10-29T09:14:37.228Z,79.29
2017-10-29T09:17:04.873Z,78.55
2017-10-29T09:19:32.469Z,78.33
2017-10-29T09:22:00.049Z,77.30
2017-10-29T09:24:27.980Z,77.11
2017-10-29T09:26:55.577Z,76.37
2017-10-29T09:29:23.228Z,75.88
2017-10-29T09:31:50.831Z,76.59
2017-10-29T09:34:18.483Z,76.29
2017-10-29T09:36:46.137Z,75.56
2017-10-29T09:39:13.808Z,76.32
2017-10-29T09:41:41.459Z,76.28
2017-10-29T09:44:09.383Z,75.80
2017-10-29T09:46:36.971Z,76.12
2017-10-29T09:49:04.565Z,76.09
2017-10-29T09:51:32.140Z,75.35
2017-10-29T09:53:59.761Z,74.47
2017-10-29T09:56:27.359Z,74.58
2017-10-29T09:58:54.960Z,73.62
2017-10-29T10:01:22.585Z,73.17
2017-10-29T10:03:50.195Z,72.47
2017-10-29T10:06:17.806Z,72.63
2017-10-29T10:08:45.432Z,71.33
2017-10-29T10:11:13.361Z,71.32
2017-10-29T10:13:40.981Z,70.46
2017-10-29T10:16:08.890Z,69.21
2017-10-29T10:18:36.767Z,68.69
2017-10-29T10:21:04.355Z,68.49
2017-10-29T10:23:32.025Z,68.65
2017-10-29T10:25:59.642Z,68.29
2017-10-29T10:28:27.234Z,68.76
2017-10-29T10:30:55.150Z,69.52
2017-10-29T10:33:23.058Z,70.35
2017-10-29T10:35:50.642Z,70.35
2017-10-29T10:38:18.260Z,74.16
2017-10-29T10:40:45.867Z,75.78
2017-10-29T10:43:13.485Z,76.55
2017-10-29T10:45:41.076Z,76.78
2017-10-29T10:48:08.656Z,76.93
2017-10-29T10:50:36.271Z,76.35
2017-10-29T10:53:03.888Z,76.99
2017-10-29T10:55:31.503Z,77.16
2017-10-29T10:57:59.077Z,77.23
2017-10-29T11:00:26.659Z,77.79
2017-10-29T11:02:54.315Z,77.86
2017-10-29T11:05:21.893Z,77.85
2017-10-29T11:07:49.815Z,77.56
2017-10-29T11:10:17.388Z,78.10
2017-10-29T11:12:45.286Z,79.28
2017-10-29T11:15:12.857Z,77.58
2017-10-29T11:17:40.449Z,77.66
2017-10-29T11:20:08.061Z,78.47
2017-10-29T11:22:35.640Z,78.45
2017-10-29T11:25:03.556Z,78.51
2017-10-29T11:27:31.423Z,78.12
2017-10-29T11:29:59.005Z,78.31
2017-10-29T11:32:26.877Z,78.60
2017-10-29T11:34:54.511Z,77.79
2017-10-29T11:37:22.133Z,77.01
2017-10-29T11:39:49.806Z,77.49
2017-10-29T11:42:17.393Z,76.86
2017-10-29T11:44:45.021Z,76.22
2017-10-29T11:47:12.630Z,75.93
2017-10-29T11:49:40.265Z,77.20
2017-10-29T11:52:07.842Z,76.06
2017-10-29T11:54:35.432Z,76.69
2017-10-29T11:57:03.456Z,77.15
2017-10-29T11:59:42.301Z,75.52
2017-10-29T12:02:10.020Z,75.63
2017-10-29T12:04:37.604Z,75.74
2017-10-29T12:07:05.203Z,75.83
2017-10-29T12:09:32.946Z,75.91
2017-10-29T12:12:00.888Z,75.54
2017-10-29T12:14:28.578Z,76.03
2017-10-29T12:16:56.200Z,76.12
2017-10-29T12:19:23.777Z,76.83
2017-10-29T12:21:51.455Z,76.55
2017-10-29T12:24:19.033Z,75.50
2017-10-29T12:26:46.659Z,75.91
2017-10-29T12:29:14.505Z,75.91
2017-10-29T12:31:42.140Z,76.12
2017-10-29T12:34:09.741Z,76.49
2017-10-29T12:36:37.333Z,77.24
2017-10-29T12:39:04.969Z,77.22
2017-10-29T12:41:32.991Z,77.07
2017-10-29T12:44:00.614Z,77.82
2017-10-29T12:46:28.217Z,78.99
2017-10-29T12:48:55.800Z,80.17
2017-10-29T12:51:23.482Z,79.67
2017-10-29T12:53:51.247Z,78.64
2017-10-29T12:56:18.939Z,78.88
2017-10-29T12:58:46.669Z,78.25
2017-10-29T13:01:14.250Z,79.39
2017-10-29T13:03:41.972Z,78.77
2017-10-29T13:06:10.033Z,79.34
2017-10-29T13:08:37.629Z,78.15
2017-10-29T13:11:05.577Z,77.01
2017-10-29T13:13:33.204Z,76.49
2017-10-29T13:16:00.885Z,76.05
2017-10-29T13:18:28.478Z,76.73
2017-10-29T13:20:56.089Z,77.72
2017-10-29T13:23:23.688Z,78.09
2017-10-29T13:25:51.470Z,77.34
2017-10-29T13:28:19.086Z,77.25
2017-10-29T13:30:46.780Z,77.54
2017-10-29T13:33:14.353Z,78.13
2017-10-29T13:35:41.970Z,78.49
2017-10-29T13:38:09.877Z,78.43
2017-10-29T13:40:37.458Z,78.50
2017-10-29T13:43:05.092Z,79.08
2017-10-29T13:45:32.679Z,78.69
2017-10-29T13:48:00.622Z,79.34
2017-10-29T13:50:28.225Z,78.98
2017-10-29T13:52:55.818Z,78.42
2017-10-29T13:55:23.505Z,77.42
2017-10-29T13:57:51.367Z,76.34
2017-10-29T14:00:18.941Z,76.19
2017-10-29T14:02:46.547Z,75.41
2017-10-29T14:05:14.128Z,74.53
2017-10-29T14:07:41.777Z,74.33
2017-10-29T14:10:09.348Z,73.02
2017-10-29T14:12:36.922Z,73.09
2017-10-29T14:15:04.515Z,72.82
2017-10-29T14:17:32.110Z,72.75
2017-10-29T14:20:00.032Z,73.46
2017-10-29T14:22:27.676Z,72.55
2017-10-29T14:24:55.272Z,72.65
2017-10-29T14:27:22.974Z,72.17
2017-10-29T14:29:50.836Z,72.19
2017-10-29T14:32:18.509Z,72.05
2017-10-29T14:37:19.994Z,73.94
2017-10-29T14:39:47.609Z,72.75
2017-10-29T14:42:15.193Z,73.16
2017-10-29T14:44:42.821Z,73.94
2017-10-29T14:47:10.783Z,74.02
2017-10-29T14:49:38.404Z,74.10
2017-10-29T14:52:06.066Z,73.89
2017-10-29T14:54:33.666Z,72.88
2017-10-29T14:57:01.291Z,73.05
2017-10-29T14:59:28.917Z,72.59
2017-10-29T15:01:56.613Z,70.97
2017-10-29T15:04:24.233Z,71.35
2017-10-29T15:06:51.829Z,70.62
2017-10-29T15:09:19.577Z,70.46
2017-10-29T15:11:47.168Z,70.36
2017-10-29T15:14:14.818Z,68.65
2017-10-29T15:16:42.441Z,70.29
2017-10-29T15:19:10.073Z,69.37
2017-10-29T15:21:37.767Z,70.14
2017-10-29T15:24:05.580Z,69.79
2017-10-29T15:26:33.221Z,70.50
2017-10-29T15:29:00.833Z,70.71
2017-10-29T15:31:28.428Z,71.29
2017-10-29T15:33:56.046Z,70.71
2017-10-29T15:36:23.659Z,71.06
2017-10-29T15:38:51.330Z,70.75
2017-10-29T15:41:18.925Z,71.57
2017-10-29T15:43:46.525Z,71.67
2017-10-29T15:46:14.144Z,71.70
2017-10-29T15:48:41.764Z,71.05
2017-10-29T15:51:09.449Z,71.19
2017-10-29T15:53:37.069Z,72.12
2017-10-29T15:56:04.688Z,70.68
2017-10-29T15:58:32.312Z,70.72
2017-10-29T16:01:00.291Z,70.74
2017-10-29T16:03:27.976Z,71.01
2017-10-29T16:05:55.593Z,69.95
2017-10-29T16:08:23.317Z,69.87
2017-10-29T16:10:51.036Z,69.81
2017-10-29T16:13:18.710Z,69.84
2017-10-29T16:15:46.354Z,69.90
2017-10-29T16:18:14.326Z,69.66
2017-10-29T16:20:41.925Z,68.66
2017-10-29T16:23:09.550Z,68.54
2017-10-29T16:25:37.209Z,68.49
2017-10-29T16:28:04.888Z,68.32
2017-10-29T16:30:32.635Z,68.23
2017-10-29T16:33:00.912Z,67.99
2017-10-29T16:35:28.588Z,67.56
2017-10-29T16:37:56.181Z,67.74
2017-10-29T16:40:24.106Z,67.89
2017-10-29T16:42:51.702Z,67.94
2017-10-29T16:45:19.325Z,68.33
2017-10-29T16:47:47.045Z,68.43
2017-10-29T16:50:14.653Z,69.11
2017-10-29T16:52:42.743Z,69.58
2017-10-29T16:55:10.692Z,70.52
2017-10-29T16:57:38.364Z,71.30
2017-10-29T17:00:06.007Z,71.59
2017-10-29T17:02:33.606Z,71.70
2017-10-29T17:05:01.250Z,72.23
2017-10-29T17:07:29.110Z,72.62
2017-10-29T17:09:56.785Z,72.34
2017-10-29T17:12:24.780Z,72.90
2017-10-29T17:14:52.418Z,72.86
2017-10-29T17:17:20.481Z,73.04
2017-10-29T17:19:48.151Z,73.49
2017-10-29T17:22:15.789Z,73.78
2017-10-29T17:24:43.434Z,73.37
2017-10-29T17:27:11.585Z,73.15
2017-10-29T17:29:39.293Z,73.65
2017-10-29T17:32:06.909Z,73.89
2017-10-29T17:34:34.781Z,74.25
2017-10-29T17:37:02.420Z,74.95
2017-10-29T17:39:30.040Z,74.82
2017-10-29T17:41:57.687Z,75.16
2017-10-29T17:44:25.289Z,75.19
2017-10-29T17:46:52.924Z,75.07
2017-10-29T17:49:21.006Z,75.20
2017-10-29T17:51:48.718Z,74.47
2017-10-29T17:54:16.749Z,74.18
2017-10-29T17:56:44.617Z,74.51
2017-10-29T17:59:12.215Z,74.53
2017-10-29T18:01:40.152Z,73.99
2017-10-29T18:04:07.757Z,74.52
2017-10-29T18:06:35.389Z,74.46
2017-10-29T18:09:03.009Z,74.07
2017-10-29T18:11:30.912Z,74.37
2017-10-29T18:13:58.536Z,75.17
2017-10-29T18:16:26.132Z,74.29
2017-10-29T18:18:53.774Z,73.43
2017-10-29T18:21:21.350Z,73.32
2017-10-29T18:23:48.979Z,72.43
2017-10-29T18:26:16.663Z,70.95
2017-10-29T18:28:44.651Z,70.69
2017-10-29T18:31:12.354Z,71.27
2017-10-29T18:33:39.946Z,70.57
2017-10-29T18:36:07.846Z,70.37
2017-10-29T18:38:35.500Z,70.20
2017-10-29T18:41:03.107Z,69.79
2017-10-29T18:43:30.739Z,69.25
2017-10-29T18:45:58.601Z,69.04
2017-10-29T18:48:26.569Z,68.90
2017-10-29T18:50:54.197Z,69.29
2017-10-29T18:53:21.831Z,69.27
2017-10-29T18:55:49.508Z,69.50
2017-10-29T18:58:17.157Z,70.58
2017-10-29T19:00:44.837Z,69.70
2017-10-29T19:03:12.517Z,70.25
2017-10-29T19:05:40.199Z,70.06
2017-10-29T19:08:08.189Z,70.29
2017-10-29T19:10:35.869Z,70.02
2017-10-29T19:13:03.512Z,70.05
2017-10-29T19:15:31.121Z,69.81
2017-10-29T19:17:58.801Z,69.83
2017-10-29T19:20:26.552Z,69.96
2017-10-29T19:22:54.211Z,69.69
2017-10-29T19:25:21.876Z,69.82
2017-10-29T19:27:49.525Z,69.92
2017-10-29T19:30:17.122Z,69.89
2017-10-29T19:32:44.800Z,69.55
2017-10-29T19:35:12.427Z,69.62
2017-10-29T19:37:40.803Z,69.19
2017-10-29T19:40:08.458Z,69.45
2017-10-29T19:42:36.179Z,69.44
2017-10-29T19:45:03.934Z,68.72
2017-10-29T19:47:31.553Z,68.78
2017-10-29T19:49:59.407Z,68.82
2017-10-29T19:52:27.050Z,68.50
2017-10-29T19:54:54.691Z,68.19
2017-10-29T19:57:22.678Z,68.49
2017-10-29T19:59:50.310Z,68.46
2017-10-29T20:02:17.922Z,68.91
2017-10-29T20:04:45.597Z,67.61
2017-10-29T20:07:13.553Z,68.14
2017-10-29T20:09:41.217Z,67.97
2017-10-29T20:12:08.821Z,68.19
2017-10-29T20:14:36.459Z,68.15
2017-10-29T20:17:04.119Z,68.12
2017-10-29T20:19:32.045Z,68.37
2017-10-29T20:21:59.693Z,68.39
2017-10-29T20:24:27.293Z,68.45
2017-10-29T20:26:54.884Z,68.44
2017-10-29T20:29:22.539Z,68.75
2017-10-29T20:31:52.648Z,69.21
2017-10-29T20:34:20.296Z,69.21
2017-10-29T20:36:47.892Z,69.05
2017-10-29T20:39:15.507Z,69.54
2017-10-29T20:41:43.517Z,69.83
2017-10-29T20:44:11.114Z,70.08
2017-10-29T20:46:39.122Z,70.29
2017-10-29T20:49:06.730Z,70.44
2017-10-29T20:51:34.339Z,70.67
2017-10-29T20:54:02.869Z,70.57
2017-10-29T20:56:30.534Z,70.51
2017-10-29T20:58:58.436Z,70.69
2017-10-29T21:01:26.201Z,70.66
2017-10-29T21:03:53.810Z,70.67
2017-10-29T21:06:21.470Z,70.97
2017-10-29T21:08:49.934Z,70.91
2017-10-29T21:11:17.535Z,70.91
2017-10-29T21:13:45.180Z,70.95
2017-10-29T21:16:12.825Z,70.83
2017-10-29T21:18:40.773Z,70.98
2017-10-29T21:21:08.464Z,71.33
2017-10-29T21:23:36.078Z,71.72
2017-10-29T21:26:03.671Z,72.07
2017-10-29T21:28:31.297Z,71.84
2017-10-29T21:30:58.937Z,71.98
2017-10-29T21:33:26.571Z,72.02
2017-10-29T21:35:54.169Z,71.46
2017-10-29T21:38:21.760Z,71.99
2017-10-29T21:40:49.410Z,71.75
2017-10-29T21:43:16.998Z,71.54
2017-10-29T21:45:44.659Z,71.74
2017-10-29T21:48:12.267Z,71.30
2017-10-29T21:50:39.877Z,71.15
2017-10-29T21:53:07.575Z,71.49
2017-10-29T21:55:35.206Z,71.18
2017-10-29T21:58:02.848Z,71.05
2017-10-29T22:00:30.519Z,71.02
2017-10-29T22:02:58.101Z,71.78
2017-10-29T22:05:25.746Z,71.03
2017-10-29T22:07:53.733Z,70.52
2017-10-29T22:10:21.372Z,70.65
2017-10-29T22:12:48.998Z,70.65
2017-10-29T22:15:16.592Z,71.12
2017-10-29T22:17:44.256Z,71.16
2017-10-29T22:20:11.902Z,71.19
2017-10-29T22:22:39.571Z,71.55
2017-10-29T22:25:07.155Z,71.64
2017-10-29T22:27:34.744Z,71.81
2017-10-29T22:30:02.362Z,71.96
2017-10-29T22:32:29.972Z,72.49
2017-10-29T22:34:58.023Z,71.81
2017-10-29T22:37:25.889Z,72.13
2017-10-29T22:39:53.519Z,72.46
2017-10-29T22:42:21.132Z,72.70
2017-10-29T22:44:48.724Z,72.33
2017-10-29T22:47:16.338Z,72.54
2017-10-29T22:49:43.980Z,72.66
2017-10-29T22:52:12.955Z,72.33
2017-10-29T22:54:40.544Z,72.51
2017-10-29T22:57:08.148Z,72.54
2017-10-29T22:59:35.776Z,71.82
2017-10-29T23:02:03.386Z,71.56
2017-10-29T23:04:31.066Z,71.90
2017-10-29T23:06:58.661Z,71.75
2017-10-29T23:09:26.291Z,71.40
2017-10-29T23:11:53.948Z,71.38
2017-10-29T23:14:21.873Z,71.93
2017-10-29T23:16:49.504Z,72.17
2017-10-29T23:19:17.119Z,71.75
2017-10-29T23:21:45.061Z,71.97
2017-10-29T23:24:12.694Z,72.16
2017-10-29T23:26:40.336Z,71.83
2017-10-29T23:29:07.996Z,72.09
2017-10-29T23:31:35.654Z,71.84
2017-10-29T23:34:03.232Z,72.01
2017-10-29T23:36:30.888Z,72.00
2017-10-29T23:38:58.471Z,72.13
2017-10-29T23:41:26.109Z,72.12
2017-10-29T23:43:53.696Z,72.23
2017-10-29T23:46:21.335Z,72.63
2017-10-29T23:48:49.245Z,72.65
2017-10-29T23:51:16.867Z,72.92
2017-10-29T23:53:44.553Z,73.24
2017-10-29T23:56:12.142Z,73.24
2017-10-29T23:58:40.110Z,73.32
